Asia Ruby IV — 9V2667 — position and weather

sailwx.info

Track history (hours):
 
Tides and Currents Weather Stations Pressure Air Temp Water Temp Dewpoint Dewpoint Depression Visibility Wind Speed Wind Dir Waves Ship Positions

Asia Ruby IV

Last reported at 2017-Sep-25 13:39 UTC. Time now 2017-Sep-25 15:22 UTC.
Position N 28°01' W 013°32'.

Length 200 m; draft 11.8 m.

Type: Cargo ship. MMSI: 564515000.

Date/timePositionNaut miles runAvg speedWind from/ knotsBaromVisibWave heightAir tempDewpointWater temp
2017-Sep-25 13:39N 28°01' W 013°32'612.6
2017-Sep-25 13:12N 28°06' W 013°28'413.1
2017-Sep-25 12:52N 28°10' W 013°26'3813.0
2017-Sep-25 09:55N 28°42' W 013°02'512.7
2017-Sep-25 09:29N 28°47' W 012°59'612.5
2017-Sep-25 09:00N 28°52' W 012°55'612.8
2017-Sep-25 08:30N 28°57' W 012°51'713.3
2017-Sep-25 08:00N 29°03' W 012°47'713.3
2017-Sep-25 07:30N 29°08' W 012°43'812.9
2017-Sep-25 06:52N 29°15' W 012°38'3212.2
2017-Sep-25 04:16N 29°42' W 012°19'1312.7
2017-Sep-25 03:15N 29°53' W 012°11'712.8
2017-Sep-25 02:42N 29°59' W 012°07'213.1
2017-Sep-25 02:30N 30°01' W 012°05'813.4
2017-Sep-25 01:56N 30°08' W 012°00'613.4
2017-Sep-25 01:28N 30°13' W 011°57'613.3
2017-Sep-25 01:00N 30°18' W 011°53'713.1
2017-Sep-25 00:26N 30°24' W 011°48'612.9
2017-Sep-24 23:59N 30°29' W 011°44'612.8
2017-Sep-24 23:30N 30°35' W 011°41'713.1
2017-Sep-24 23:00N 30°40' W 011°37'913.0
2017-Sep-24 22:19N 30°48' W 011°31'413.0
2017-Sep-24 22:00N 30°51' W 011°29'812.9
2017-Sep-24 21:25N 30°58' W 011°24'512.9
2017-Sep-24 21:00N 31°02' W 011°21'813.3
2017-Sep-24 20:23N 31°09' W 011°15'513.2
2017-Sep-24 20:00N 31°13' W 011°12'913.1
2017-Sep-24 19:17N 31°21' W 011°06'413.2
2017-Sep-24 19:00N 31°24' W 011°04'712.9
2017-Sep-24 18:26N 31°31' W 010°60'612.5
2017-Sep-24 17:59N 31°35' W 010°56'612.7
2017-Sep-24 17:30N 31°41' W 010°52'913.2
2017-Sep-24 16:51N 31°48' W 010°47'513.0
2017-Sep-24 16:30N 31°52' W 010°44'713.0
2017-Sep-24 16:00N 31°57' W 010°40'713.0
2017-Sep-24 15:30N 32°03' W 010°36'713.0
2017-Sep-24 14:56N 32°09' W 010°31'612.9
2017-Sep-24 14:30N 32°14' W 010°28'612.7
2017-Sep-24 13:59N 32°19' W 010°24'612.7
2017-Sep-24 13:30N 32°24' W 010°19'2112.7
2017-Sep-24 11:49N 32°40' W 010°02'413.0
2017-Sep-24 11:30N 32°43' W 009°59'12712.9
2017-Sep-24 01:36N 34°16' W 008°14'112.7
2017-Sep-24 01:29N 34°17' W 008°13'59411.9
2017-Sep-21 23:47N 37°25' E 003°22'312.2
2017-Sep-21 23:30N 37°25' E 003°26'612.3
2017-Sep-21 23:00N 37°26' E 003°34'48411.4
2017-Sep-20 04:28N 36°35' E 013°37'510.1
2017-Sep-20 03:59N 36°33' E 013°42'510.3
2017-Sep-20 03:30N 36°31' E 013°48'510.4
2017-Sep-20 03:00N 36°29' E 013°54'510.5
2017-Sep-20 02:30N 36°27' E 014°00'510.1
2017-Sep-20 02:00N 36°25' E 014°06'510.5
2017-Sep-20 01:30N 36°23' E 014°12'510.5
2017-Sep-20 01:00N 36°21' E 014°18'510.4
2017-Sep-20 00:29N 36°19' E 014°24'510.2
2017-Sep-20 00:00N 36°17' E 014°30'510.0
2017-Sep-19 23:30N 36°17' E 014°36'5 9.8
2017-Sep-19 23:00N 36°17' E 014°42'5 9.8
2017-Sep-19 22:30N 36°17' E 014°48'7011.5
2017-Sep-19 16:25N 36°14' E 016°15'28112.7
2017-Sep-18 18:22N 36°03' E 022°02'411.9
2017-Sep-18 18:01N 36°03' E 022°07'811.9
2017-Sep-18 17:20N 36°03' E 022°17'5011.0
2017-Sep-18 12:47N 36°11' E 023°19'312.6
2017-Sep-18 12:31N 36°14' E 023°21'612.5
2017-Sep-18 12:00N 36°19' E 023°26'712.5
2017-Sep-18 11:28N 36°24' E 023°32'612.7
2017-Sep-18 11:01N 36°28' E 023°37'612.7
2017-Sep-18 10:30N 36°33' E 023°42'612.5
2017-Sep-18 10:01N 36°38' E 023°47'612.8
2017-Sep-18 09:31N 36°43' E 023°52'1412.9
2017-Sep-18 08:24N 36°55' E 024°01'813.5
2017-Sep-18 07:47N 37°03' E 024°05'413.5
2017-Sep-18 07:30N 37°06' E 024°07'17312.6
2017-Sep-17 17:51N 39°42' E 025°41'1613.3
2017-Sep-17 16:38N 39°56' E 025°52'213.7
2017-Sep-17 16:30N 39°57' E 025°54'713.4
2017-Sep-17 16:00N 40°01' E 026°01'612.9
2017-Sep-17 15:30N 40°02' E 026°09'1112.0
2017-Sep-17 14:33N 40°08' E 026°22'112.3
2017-Sep-17 14:27N 40°09' E 026°23'1511.6
2017-Sep-17 13:09N 40°20' E 026°36'512.5
2017-Sep-17 12:43N 40°24' E 026°41'2 8.2
2017-Sep-17 12:26N 40°25' E 026°44'5 5.3
2017-Sep-17 11:31N 40°28' E 026°49'0 6.9
2017-Sep-17 11:29N 40°28' E 026°49'4 7.0
2017-Sep-17 10:57N 40°29' E 026°54'5 9.1
2017-Sep-17 10:25N 40°32' E 026°59'118 7.5
2017-Sep-16 18:43N 41°27' E 029°17'1 0.4
2017-Sep-16 17:19N 41°28' E 029°17'108 6.7
2017-Sep-16 01:09N 42°11' E 031°31'312.8
2017-Sep-16 00:57N 42°12' E 031°34'612.9
2017-Sep-16 00:30N 42°15' E 031°41'612.8
2017-Sep-16 00:00N 42°18' E 031°48'612.7
2017-Sep-15 23:30N 42°21' E 031°56'712.7
2017-Sep-15 22:58N 42°24' E 032°04'612.7
2017-Sep-15 22:30N 42°27' E 032°11'612.7
2017-Sep-15 22:00N 42°29' E 032°19'612.9
2017-Sep-15 21:30N 42°32' E 032°26'612.9
2017-Sep-15 21:00N 42°35' E 032°34'713.1
2017-Sep-15 20:30N 42°39' E 032°42'713.2
2017-Sep-15 20:00N 42°42' E 032°50'713.1
2017-Sep-15 19:30N 42°45' E 032°58'713.1
2017-Sep-15 19:00N 42°48' E 033°06'713.1
2017-Sep-15 18:30N 42°51' E 033°14'713.1
2017-Sep-15 18:00N 42°54' E 033°22'613.0
2017-Sep-15 17:30N 42°57' E 033°29'612.9
2017-Sep-15 17:00N 42°60' E 033°37'612.9
2017-Sep-15 16:30N 43°03' E 033°45'712.9
2017-Sep-15 16:00N 43°06' E 033°53'613.0
2017-Sep-15 15:30N 43°09' E 034°01'613.0
2017-Sep-15 15:00N 43°12' E 034°09'613.0
2017-Sep-15 14:30N 43°15' E 034°17'612.9
2017-Sep-15 14:00N 43°18' E 034°24'  
Track history (hours):
 
Tides and Currents Weather Stations Pressure Air Temp Water Temp Dewpoint Dewpoint Depression Visibility Wind Speed Wind Dir Waves Ship Positions

Asia Ruby IV

Last reported at 2017-Sep-25 13:39 UTC. Time now 2017-Sep-25 15:22 UTC.
Position N 28°01' W 013°32'.

Length 200 m; draft 11.8 m.

Type: Cargo ship. MMSI: 564515000.

Date/timePositionNaut miles runAvg speedWind from/ knotsBaromVisibWave heightAir tempDewpointWater temp
2017-Sep-25 13:39N 28°01' W 013°32'612.6
2017-Sep-25 13:12N 28°06' W 013°28'413.1
2017-Sep-25 12:52N 28°10' W 013°26'3813.0
2017-Sep-25 09:55N 28°42' W 013°02'512.7
2017-Sep-25 09:29N 28°47' W 012°59'612.5
2017-Sep-25 09:00N 28°52' W 012°55'612.8
2017-Sep-25 08:30N 28°57' W 012°51'713.3
2017-Sep-25 08:00N 29°03' W 012°47'713.3
2017-Sep-25 07:30N 29°08' W 012°43'812.9
2017-Sep-25 06:52N 29°15' W 012°38'3212.2
2017-Sep-25 04:16N 29°42' W 012°19'1312.7
2017-Sep-25 03:15N 29°53' W 012°11'712.8
2017-Sep-25 02:42N 29°59' W 012°07'213.1
2017-Sep-25 02:30N 30°01' W 012°05'813.4
2017-Sep-25 01:56N 30°08' W 012°00'613.4
2017-Sep-25 01:28N 30°13' W 011°57'613.3
2017-Sep-25 01:00N 30°18' W 011°53'713.1
2017-Sep-25 00:26N 30°24' W 011°48'612.9
2017-Sep-24 23:59N 30°29' W 011°44'612.8
2017-Sep-24 23:30N 30°35' W 011°41'713.1
2017-Sep-24 23:00N 30°40' W 011°37'913.0
2017-Sep-24 22:19N 30°48' W 011°31'413.0
2017-Sep-24 22:00N 30°51' W 011°29'812.9
2017-Sep-24 21:25N 30°58' W 011°24'512.9
2017-Sep-24 21:00N 31°02' W 011°21'813.3
2017-Sep-24 20:23N 31°09' W 011°15'513.2
2017-Sep-24 20:00N 31°13' W 011°12'913.1
2017-Sep-24 19:17N 31°21' W 011°06'413.2
2017-Sep-24 19:00N 31°24' W 011°04'712.9
2017-Sep-24 18:26N 31°31' W 010°60'612.5
2017-Sep-24 17:59N 31°35' W 010°56'612.7
2017-Sep-24 17:30N 31°41' W 010°52'913.2
2017-Sep-24 16:51N 31°48' W 010°47'513.0
2017-Sep-24 16:30N 31°52' W 010°44'713.0
2017-Sep-24 16:00N 31°57' W 010°40'713.0
2017-Sep-24 15:30N 32°03' W 010°36'713.0
2017-Sep-24 14:56N 32°09' W 010°31'612.9
2017-Sep-24 14:30N 32°14' W 010°28'612.7
2017-Sep-24 13:59N 32°19' W 010°24'612.7
2017-Sep-24 13:30N 32°24' W 010°19'2112.7
2017-Sep-24 11:49N 32°40' W 010°02'413.0
2017-Sep-24 11:30N 32°43' W 009°59'12712.9
2017-Sep-24 01:36N 34°16' W 008°14'112.7
2017-Sep-24 01:29N 34°17' W 008°13'59411.9
2017-Sep-21 23:47N 37°25' E 003°22'312.2
2017-Sep-21 23:30N 37°25' E 003°26'612.3
2017-Sep-21 23:00N 37°26' E 003°34'48411.4
2017-Sep-20 04:28N 36°35' E 013°37'510.1
2017-Sep-20 03:59N 36°33' E 013°42'510.3
2017-Sep-20 03:30N 36°31' E 013°48'510.4
2017-Sep-20 03:00N 36°29' E 013°54'510.5
2017-Sep-20 02:30N 36°27' E 014°00'510.1
2017-Sep-20 02:00N 36°25' E 014°06'510.5
2017-Sep-20 01:30N 36°23' E 014°12'510.5
2017-Sep-20 01:00N 36°21' E 014°18'510.4
2017-Sep-20 00:29N 36°19' E 014°24'510.2
2017-Sep-20 00:00N 36°17' E 014°30'510.0
2017-Sep-19 23:30N 36°17' E 014°36'5 9.8
2017-Sep-19 23:00N 36°17' E 014°42'5 9.8
2017-Sep-19 22:30N 36°17' E 014°48'7011.5
2017-Sep-19 16:25N 36°14' E 016°15'28112.7
2017-Sep-18 18:22N 36°03' E 022°02'411.9
2017-Sep-18 18:01N 36°03' E 022°07'811.9
2017-Sep-18 17:20N 36°03' E 022°17'5011.0
2017-Sep-18 12:47N 36°11' E 023°19'312.6
2017-Sep-18 12:31N 36°14' E 023°21'612.5
2017-Sep-18 12:00N 36°19' E 023°26'712.5
2017-Sep-18 11:28N 36°24' E 023°32'612.7
2017-Sep-18 11:01N 36°28' E 023°37'612.7
2017-Sep-18 10:30N 36°33' E 023°42'612.5
2017-Sep-18 10:01N 36°38' E 023°47'612.8
2017-Sep-18 09:31N 36°43' E 023°52'1412.9
2017-Sep-18 08:24N 36°55' E 024°01'813.5
2017-Sep-18 07:47N 37°03' E 024°05'413.5
2017-Sep-18 07:30N 37°06' E 024°07'17312.6
2017-Sep-17 17:51N 39°42' E 025°41'1613.3
2017-Sep-17 16:38N 39°56' E 025°52'213.7
2017-Sep-17 16:30N 39°57' E 025°54'713.4
2017-Sep-17 16:00N 40°01' E 026°01'612.9
2017-Sep-17 15:30N 40°02' E 026°09'1112.0
2017-Sep-17 14:33N 40°08' E 026°22'112.3
2017-Sep-17 14:27N 40°09' E 026°23'1511.6
2017-Sep-17 13:09N 40°20' E 026°36'512.5
2017-Sep-17 12:43N 40°24' E 026°41'2 8.2
2017-Sep-17 12:26N 40°25' E 026°44'5 5.3
2017-Sep-17 11:31N 40°28' E 026°49'0 6.9
2017-Sep-17 11:29N 40°28' E 026°49'4 7.0
2017-Sep-17 10:57N 40°29' E 026°54'5 9.1
2017-Sep-17 10:25N 40°32' E 026°59'118 7.5
2017-Sep-16 18:43N 41°27' E 029°17'1 0.4
2017-Sep-16 17:19N 41°28' E 029°17'108 6.7
2017-Sep-16 01:09N 42°11' E 031°31'312.8
2017-Sep-16 00:57N 42°12' E 031°34'612.9
2017-Sep-16 00:30N 42°15' E 031°41'612.8
2017-Sep-16 00:00N 42°18' E 031°48'612.7
2017-Sep-15 23:30N 42°21' E 031°56'712.7
2017-Sep-15 22:58N 42°24' E 032°04'612.7
2017-Sep-15 22:30N 42°27' E 032°11'612.7
2017-Sep-15 22:00N 42°29' E 032°19'612.9
2017-Sep-15 21:30N 42°32' E 032°26'612.9
2017-Sep-15 21:00N 42°35' E 032°34'713.1
2017-Sep-15 20:30N 42°39' E 032°42'713.2
2017-Sep-15 20:00N 42°42' E 032°50'713.1
2017-Sep-15 19:30N 42°45' E 032°58'713.1
2017-Sep-15 19:00N 42°48' E 033°06'713.1
2017-Sep-15 18:30N 42°51' E 033°14'713.1
2017-Sep-15 18:00N 42°54' E 033°22'613.0
2017-Sep-15 17:30N 42°57' E 033°29'612.9
2017-Sep-15 17:00N 42°60' E 033°37'612.9
2017-Sep-15 16:30N 43°03' E 033°45'712.9
2017-Sep-15 16:00N 43°06' E 033°53'613.0
2017-Sep-15 15:30N 43°09' E 034°01'613.0
2017-Sep-15 15:00N 43°12' E 034°09'613.0
2017-Sep-15 14:30N 43°15' E 034°17'612.9
2017-Sep-15 14:00N 43°18' E 034°24'  

Dump ship's entire track history